sensor_id;sensor_type;location;lat;lon;timestamp;pressure;altitude;pressure_sealevel;temperature;humidity
69780;BME280;57052;55.602;38.096;2024-02-26T00:02:16;101574.31;;;1.13;53.47
69780;BME280;57052;55.602;38.096;2024-02-26T00:04:42;101583.63;;;1.17;53.38
69780;BME280;57052;55.602;38.096;2024-02-26T00:07:07;101579.84;;;1.12;53.35
69780;BME280;57052;55.602;38.096;2024-02-26T00:09:33;101581.16;;;1.08;53.10
69780;BME280;57052;55.602;38.096;2024-02-26T00:12:02;101575.19;;;1.06;53.65
69780;BME280;57052;55.602;38.096;2024-02-26T00:14:31;101569.53;;;1.01;53.30
69780;BME280;57052;55.602;38.096;2024-02-26T00:16:57;101584.66;;;1.08;53.83
69780;BME280;57052;55.602;38.096;2024-02-26T00:19:23;101581.00;;;1.09;53.57
69780;BME280;57052;55.602;38.096;2024-02-26T00:21:48;101561.41;;;1.02;53.52
69780;BME280;57052;55.602;38.096;2024-02-26T00:24:14;101570.34;;;1.09;53.89
69780;BME280;57052;55.602;38.096;2024-02-26T00:26:40;101575.03;;;1.07;53.33
69780;BME280;57052;55.602;38.096;2024-02-26T00:29:06;101568.22;;;1.05;53.48
69780;BME280;57052;55.602;38.096;2024-02-26T00:31:31;101577.72;;;0.99;53.11
69780;BME280;57052;55.602;38.096;2024-02-26T00:33:57;101560.94;;;0.91;53.09
69780;BME280;57052;55.602;38.096;2024-02-26T00:36:23;101571.06;;;0.95;53.83
69780;BME280;57052;55.602;38.096;2024-02-26T00:38:49;101576.06;;;0.98;53.12
69780;BME280;57052;55.602;38.096;2024-02-26T00:41:17;101565.56;;;0.97;53.32
69780;BME280;57052;55.602;38.096;2024-02-26T00:43:43;101568.72;;;1.00;53.40
69780;BME280;57052;55.602;38.096;2024-02-26T00:46:08;101570.56;;;1.00;53.22
69780;BME280;57052;55.602;38.096;2024-02-26T00:48:35;101567.91;;;1.00;53.55
69780;BME280;57052;55.602;38.096;2024-02-26T00:51:03;101567.72;;;1.01;53.29
69780;BME280;57052;55.602;38.096;2024-02-26T00:53:31;101560.38;;;1.03;53.12
69780;BME280;57052;55.602;38.096;2024-02-26T00:55:57;101562.03;;;1.04;53.22
69780;BME280;57052;55.602;38.096;2024-02-26T00:58:25;101559.38;;;1.04;53.43
69780;BME280;57052;55.602;38.096;2024-02-26T01:00:51;101546.09;;;0.96;53.33
69780;BME280;57052;55.602;38.096;2024-02-26T01:03:19;101564.38;;;1.07;52.96
69780;BME280;57052;55.602;38.096;2024-02-26T01:05:45;101560.38;;;1.03;53.08
69780;BME280;57052;55.602;38.096;2024-02-26T01:08:11;101554.72;;;0.98;52.92
69780;BME280;57052;55.602;38.096;2024-02-26T01:10:37;101551.41;;;0.96;53.15
69780;BME280;57052;55.602;38.096;2024-02-26T01:13:02;101547.75;;;0.97;52.80
69780;BME280;57052;55.602;38.096;2024-02-26T01:15:28;101546.72;;;0.98;53.16
69780;BME280;57052;55.602;38.096;2024-02-26T01:17:54;101541.59;;;0.97;53.50
69780;BME280;57052;55.602;38.096;2024-02-26T01:20:20;101549.06;;;1.01;53.00
69780;BME280;57052;55.602;38.096;2024-02-26T01:22:46;101554.56;;;1.00;53.14
69780;BME280;57052;55.602;38.096;2024-02-26T01:25:12;101557.41;;;0.98;52.92
69780;BME280;57052;55.602;38.096;2024-02-26T01:27:39;101566.56;;;0.96;52.80
69780;BME280;57052;55.602;38.096;2024-02-26T01:30:07;101564.25;;;0.93;53.17
69780;BME280;57052;55.602;38.096;2024-02-26T01:32:33;101533.22;;;0.69;52.70
69780;BME280;57052;55.602;38.096;2024-02-26T01:34:58;101560.63;;;0.86;52.97
69780;BME280;57052;55.602;38.096;2024-02-26T01:37:24;101556.47;;;0.83;53.00
69780;BME280;57052;55.602;38.096;2024-02-26T01:39:50;101562.81;;;0.82;52.83
69780;BME280;57052;55.602;38.096;2024-02-26T01:42:15;101554.34;;;0.79;53.22
69780;BME280;57052;55.602;38.096;2024-02-26T01:44:41;101560.16;;;0.82;53.07
69780;BME280;57052;55.602;38.096;2024-02-26T01:47:10;101548.66;;;0.82;53.12
69780;BME280;57052;55.602;38.096;2024-02-26T01:49:37;101559.66;;;0.79;52.88
69780;BME280;57052;55.602;38.096;2024-02-26T01:52:06;101540.69;;;0.74;52.45
69780;BME280;57052;55.602;38.096;2024-02-26T01:54:37;101553.50;;;0.78;53.16
69780;BME280;57052;55.602;38.096;2024-02-26T01:57:07;101547.34;;;0.78;52.53
69780;BME280;57052;55.602;38.096;2024-02-26T01:59:34;101542.19;;;0.76;52.79
69780;BME280;57052;55.602;38.096;2024-02-26T02:02:03;101549.84;;;0.79;52.99
69780;BME280;57052;55.602;38.096;2024-02-26T02:04:29;101544.50;;;0.79;53.08
69780;BME280;57052;55.602;38.096;2024-02-26T02:06:55;101541.84;;;0.79;52.88
69780;BME280;57052;55.602;38.096;2024-02-26T02:09:23;101544.50;;;0.79;52.75
69780;BME280;57052;55.602;38.096;2024-02-26T02:11:49;101540.84;;;0.80;53.28
69780;BME280;57052;55.602;38.096;2024-02-26T02:14:15;101540.00;;;0.80;53.03
69780;BME280;57052;55.602;38.096;2024-02-26T02:16:41;101540.00;;;0.80;52.60
69780;BME280;57052;55.602;38.096;2024-02-26T02:19:07;101538.38;;;0.71;52.92
69780;BME280;57052;55.602;38.096;2024-02-26T02:21:33;101536.22;;;0.66;52.80
69780;BME280;57052;55.602;38.096;2024-02-26T02:23:58;101549.25;;;0.61;52.87
69780;BME280;57052;55.602;38.096;2024-02-26T02:26:24;101544.25;;;0.58;52.80
69780;BME280;57052;55.602;38.096;2024-02-26T02:28:50;101545.63;;;0.54;52.97
69780;BME280;57052;55.602;38.096;2024-02-26T02:31:16;101543.78;;;0.54;53.20
69780;BME280;57052;55.602;38.096;2024-02-26T02:33:42;101532.28;;;0.54;53.24
69780;BME280;57052;55.602;38.096;2024-02-26T02:36:08;101528.00;;;0.45;53.18
69780;BME280;57052;55.602;38.096;2024-02-26T02:38:48;101541.31;;;0.45;52.91
69780;BME280;57052;55.602;38.096;2024-02-26T02:41:15;101531.00;;;0.42;52.92
69780;BME280;57052;55.602;38.096;2024-02-26T02:43:41;101534.34;;;0.44;52.99
69780;BME280;57052;55.602;38.096;2024-02-26T02:46:07;101535.16;;;0.44;52.94
69780;BME280;57052;55.602;38.096;2024-02-26T02:48:32;101540.16;;;0.47;53.09
69780;BME280;57052;55.602;38.096;2024-02-26T02:50:58;101542.13;;;0.45;52.99
69780;BME280;57052;55.602;38.096;2024-02-26T02:53:24;101529.84;;;0.44;52.96
69780;BME280;57052;55.602;38.096;2024-02-26T02:55:49;101533.69;;;0.42;53.12
69780;BME280;57052;55.602;38.096;2024-02-26T02:58:15;101540.81;;;0.41;53.04
69780;BME280;57052;55.602;38.096;2024-02-26T03:00:41;101524.88;;;0.25;52.85
69780;BME280;57052;55.602;38.096;2024-02-26T03:03:06;101527.72;;;0.32;53.23
69780;BME280;57052;55.602;38.096;2024-02-26T03:05:32;101543.34;;;0.35;52.88
69780;BME280;57052;55.602;38.096;2024-02-26T03:07:58;101518.78;;;0.17;53.12
69780;BME280;57052;55.602;38.096;2024-02-26T03:10:23;101542.53;;;0.34;53.06
69780;BME280;57052;55.602;38.096;2024-02-26T03:12:50;101537.34;;;0.33;53.06
69780;BME280;57052;55.602;38.096;2024-02-26T03:15:15;101536.88;;;0.29;53.04
69780;BME280;57052;55.602;38.096;2024-02-26T03:17:41;101533.19;;;0.30;53.37
69780;BME280;57052;55.602;38.096;2024-02-26T03:20:08;101539.03;;;0.34;53.08
69780;BME280;57052;55.602;38.096;2024-02-26T03:22:35;101538.06;;;0.27;53.16
69780;BME280;57052;55.602;38.096;2024-02-26T03:25:01;101538.06;;;0.27;53.03
69780;BME280;57052;55.602;38.096;2024-02-26T03:27:30;101531.88;;;0.26;53.01
69780;BME280;57052;55.602;38.096;2024-02-26T03:29:56;101531.38;;;0.23;53.21
69780;BME280;57052;55.602;38.096;2024-02-26T03:32:22;101534.88;;;0.23;52.93
69780;BME280;57052;55.602;38.096;2024-02-26T03:34:48;101528.91;;;0.21;53.28
69780;BME280;57052;55.602;38.096;2024-02-26T03:37:14;101536.38;;;0.18;53.26
69780;BME280;57052;55.602;38.096;2024-02-26T03:39:40;101538.25;;;0.17;53.10
69780;BME280;57052;55.602;38.096;2024-02-26T03:42:06;101530.59;;;0.14;53.44
69780;BME280;57052;55.602;38.096;2024-02-26T03:44:32;101531.44;;;0.15;53.27
69780;BME280;57052;55.602;38.096;2024-02-26T03:46:57;101533.06;;;0.16;53.44
69780;BME280;57052;55.602;38.096;2024-02-26T03:49:23;101528.25;;;0.11;53.37
69780;BME280;57052;55.602;38.096;2024-02-26T03:51:49;101537.41;;;0.17;53.12
69780;BME280;57052;55.602;38.096;2024-02-26T03:54:14;101532.59;;;0.12;53.18
69780;BME280;57052;55.602;38.096;2024-02-26T03:56:40;101535.41;;;0.11;53.23
69780;BME280;57052;55.602;38.096;2024-02-26T03:59:06;101527.09;;;0.06;53.45
69780;BME280;57052;55.602;38.096;2024-02-26T04:01:32;101536.91;;;0.05;53.48
69780;BME280;57052;55.602;38.096;2024-02-26T04:03:58;101533.09;;;0.08;53.65
69780;BME280;57052;55.602;38.096;2024-02-26T04:06:23;101538.09;;;0.03;53.57
69780;BME280;57052;55.602;38.096;2024-02-26T04:08:49;101521.31;;;-0.06;53.55
69780;BME280;57052;55.602;38.096;2024-02-26T04:11:15;101509.03;;;-0.15;53.17
69780;BME280;57052;55.602;38.096;2024-02-26T04:13:44;101535.94;;;-0.02;53.60
69780;BME280;57052;55.602;38.096;2024-02-26T04:16:15;101534.44;;;-0.05;53.52
69780;BME280;57052;55.602;38.096;2024-02-26T04:18:42;101539.09;;;-0.07;53.92
69780;BME280;57052;55.602;38.096;2024-02-26T04:21:08;101534.63;;;-0.06;53.62
69780;BME280;57052;55.602;38.096;2024-02-26T04:23:33;101549.09;;;-0.09;53.94
69780;BME280;57052;55.602;38.096;2024-02-26T04:25:59;101543.94;;;-0.10;53.72
69780;BME280;57052;55.602;38.096;2024-02-26T04:28:25;101527.47;;;-0.30;53.78
69780;BME280;57052;55.602;38.096;2024-02-26T04:30:54;101542.13;;;-0.18;53.80
69780;BME280;57052;55.602;38.096;2024-02-26T04:33:20;101554.59;;;-0.18;53.68
69780;BME280;57052;55.602;38.096;2024-02-26T04:35:46;101543.78;;;-0.25;53.66
69780;BME280;57052;55.602;38.096;2024-02-26T04:38:11;101484.28;;;-0.64;54.11
69780;BME280;57052;55.602;38.096;2024-02-26T04:40:37;101539.47;;;-0.26;53.86
69780;BME280;57052;55.602;38.096;2024-02-26T04:43:03;101543.44;;;-0.22;54.02
69780;BME280;57052;55.602;38.096;2024-02-26T04:45:29;101543.13;;;-0.19;54.17
69780;BME280;57052;55.602;38.096;2024-02-26T04:47:54;101546.63;;;-0.18;53.86
69780;BME280;57052;55.602;38.096;2024-02-26T04:50:20;101550.13;;;-0.18;53.92
69780;BME280;57052;55.602;38.096;2024-02-26T04:52:46;101553.25;;;-0.14;54.24
69780;BME280;57052;55.602;38.096;2024-02-26T04:55:12;101555.44;;;-0.18;53.85
69780;BME280;57052;55.602;38.096;2024-02-26T04:57:37;101546.63;;;-0.18;53.85
69780;BME280;57052;55.602;38.096;2024-02-26T05:00:04;101548.94;;;-0.15;53.89
69780;BME280;57052;55.602;38.096;2024-02-26T05:02:30;101547.28;;;-0.16;54.10
69780;BME280;57052;55.602;38.096;2024-02-26T05:04:58;101549.94;;;-0.16;54.01
69780;BME280;57052;55.602;38.096;2024-02-26T05:07:24;101542.28;;;-0.19;53.95
69780;BME280;57052;55.602;38.096;2024-02-26T05:09:50;101532.47;;;-0.19;54.01
69780;BME280;57052;55.602;38.096;2024-02-26T05:12:16;101532.16;;;-0.16;54.24
69780;BME280;57052;55.602;38.096;2024-02-26T05:14:42;101537.47;;;-0.16;54.31
69780;BME280;57052;55.602;38.096;2024-02-26T05:17:08;101537.47;;;-0.16;53.74
69780;BME280;57052;55.602;38.096;2024-02-26T05:19:34;101534.81;;;-0.16;54.00
69780;BME280;57052;55.602;38.096;2024-02-26T05:21:59;101521.00;;;-0.19;53.84
69780;BME280;57052;55.602;38.096;2024-02-26T05:24:25;101535.47;;;-0.14;54.01
69780;BME280;57052;55.602;38.096;2024-02-26T05:26:51;101530.81;;;-0.12;54.15
69780;BME280;57052;55.602;38.096;2024-02-26T05:29:17;101522.81;;;-0.20;54.17
69780;BME280;57052;55.602;38.096;2024-02-26T05:31:43;101531.81;;;-0.13;54.09
69780;BME280;57052;55.602;38.096;2024-02-26T05:34:27;101534.28;;;-0.11;54.25
69780;BME280;57052;55.602;38.096;2024-02-26T05:36:52;101533.13;;;-0.09;54.04
69780;BME280;57052;55.602;38.096;2024-02-26T05:39:18;101530.13;;;-0.06;54.12
69780;BME280;57052;55.602;38.096;2024-02-26T05:44:28;101526.78;;;0.00;53.80
69780;BME280;57052;55.602;38.096;2024-02-26T05:46:54;101535.94;;;0.06;54.03
69780;BME280;57052;55.602;38.096;2024-02-26T05:49:20;101533.91;;;0.08;53.85
69780;BME280;57052;55.602;38.096;2024-02-26T05:51:46;101485.94;;;-0.23;53.75
69780;BME280;57052;55.602;38.096;2024-02-26T05:54:12;101530.41;;;0.08;53.98
69780;BME280;57052;55.602;38.096;2024-02-26T05:56:38;101539.44;;;0.07;53.68
69780;BME280;57052;55.602;38.096;2024-02-26T05:59:04;101516.50;;;-0.03;54.04
69780;BME280;57052;55.602;38.096;2024-02-26T06:01:30;101521.13;;;-0.05;53.69
69780;BME280;57052;55.602;38.096;2024-02-26T06:03:56;101536.59;;;0.08;53.79
69780;BME280;57052;55.602;38.096;2024-02-26T06:06:22;101536.25;;;0.11;53.88
69780;BME280;57052;55.602;38.096;2024-02-26T06:08:49;101534.56;;;0.10;53.77
69780;BME280;57052;55.602;38.096;2024-02-26T06:11:15;101545.06;;;0.12;53.77
69780;BME280;57052;55.602;38.096;2024-02-26T06:13:40;101544.75;;;0.07;53.65
69780;BME280;57052;55.602;38.096;2024-02-26T06:16:08;101545.22;;;0.10;53.67
69780;BME280;57052;55.602;38.096;2024-02-26T06:18:34;101543.06;;;0.14;53.84
69780;BME280;57052;55.602;38.096;2024-02-26T06:21:00;101548.38;;;0.14;53.73
69780;BME280;57052;55.602;38.096;2024-02-26T06:23:26;101549.22;;;0.22;53.86
69780;BME280;57052;55.602;38.096;2024-02-26T06:25:52;101539.88;;;0.18;53.97
69780;BME280;57052;55.602;38.096;2024-02-26T06:28:17;101532.75;;;0.11;53.52
69780;BME280;57052;55.602;38.096;2024-02-26T06:30:43;101541.88;;;0.24;53.54
69780;BME280;57052;55.602;38.096;2024-02-26T06:33:09;101539.69;;;0.28;53.63
69780;BME280;57052;55.602;38.096;2024-02-26T06:35:36;101537.34;;;0.33;53.71
69780;BME280;57052;55.602;38.096;2024-02-26T06:38:01;101546.03;;;0.35;53.52
69780;BME280;57052;55.602;38.096;2024-02-26T06:40:27;101540.00;;;0.41;53.89
69780;BME280;57052;55.602;38.096;2024-02-26T06:42:53;101534.34;;;0.44;53.81
69780;BME280;57052;55.602;38.096;2024-02-26T06:45:19;101538.16;;;0.49;53.67
69780;BME280;57052;55.602;38.096;2024-02-26T06:47:47;101538.63;;;0.53;53.42
69780;BME280;57052;55.602;38.096;2024-02-26T06:50:13;101540.41;;;0.60;53.66
69780;BME280;57052;55.602;38.096;2024-02-26T06:52:39;101525.44;;;0.59;53.40
69780;BME280;57052;55.602;38.096;2024-02-26T06:55:05;101543.88;;;0.69;53.25
69780;BME280;57052;55.602;38.096;2024-02-26T06:57:33;101535.56;;;0.72;53.74
69780;BME280;57052;55.602;38.096;2024-02-26T06:59:59;101536.84;;;0.76;53.49
69780;BME280;57052;55.602;38.096;2024-02-26T07:02:25;101530.00;;;0.82;53.30
69780;BME280;57052;55.602;38.096;2024-02-26T07:04:50;101538.50;;;0.85;53.59
69780;BME280;57052;55.602;38.096;2024-02-26T07:07:16;101536.47;;;0.87;53.23
69780;BME280;57052;55.602;38.096;2024-02-26T07:09:44;101535.59;;;0.95;53.40
69780;BME280;57052;55.602;38.096;2024-02-26T07:12:09;101536.72;;;1.00;53.28
69780;BME280;57052;55.602;38.096;2024-02-26T07:14:35;101544.53;;;1.10;53.25
69780;BME280;57052;55.602;38.096;2024-02-26T07:17:03;101544.81;;;1.15;53.15
69780;BME280;57052;55.602;38.096;2024-02-26T07:19:29;101540.66;;;1.12;53.01
69780;BME280;57052;55.602;38.096;2024-02-26T07:21:54;101528.13;;;1.13;53.11
69780;BME280;57052;55.602;38.096;2024-02-26T07:24:21;101543.97;;;1.14;53.59
69780;BME280;57052;55.602;38.096;2024-02-26T07:26:47;101520.69;;;1.08;53.26
69780;BME280;57052;55.602;38.096;2024-02-26T07:29:12;101520.81;;;1.15;53.38
69780;BME280;57052;55.602;38.096;2024-02-26T07:31:38;101533.84;;;1.10;53.31
69780;BME280;57052;55.602;38.096;2024-02-26T07:34:04;101527.94;;;1.22;52.58
69780;BME280;57052;55.602;38.096;2024-02-26T07:36:30;101525.09;;;1.24;52.97
69780;BME280;57052;55.602;38.096;2024-02-26T07:38:56;101529.19;;;1.35;52.93
69780;BME280;57052;55.602;38.096;2024-02-26T07:41:22;101517.97;;;1.39;52.71
69780;BME280;57052;55.602;38.096;2024-02-26T07:43:47;101520.75;;;1.46;52.97
69780;BME280;57052;55.602;38.096;2024-02-26T07:46:14;101520.69;;;1.54;52.54
69780;BME280;57052;55.602;38.096;2024-02-26T07:48:39;101520.88;;;1.52;52.49
69780;BME280;57052;55.602;38.096;2024-02-26T07:51:06;101468.97;;;1.17;52.78
69780;BME280;57052;55.602;38.096;2024-02-26T07:53:32;101528.25;;;1.50;52.65
69780;BME280;57052;55.602;38.096;2024-02-26T07:55:58;101522.97;;;1.42;52.54
69780;BME280;57052;55.602;38.096;2024-02-26T07:58:23;101503.50;;;1.34;52.68
69780;BME280;57052;55.602;38.096;2024-02-26T08:00:49;101519.69;;;1.55;52.53
69780;BME280;57052;55.602;38.096;2024-02-26T08:03:15;101527.63;;;1.63;53.04
69780;BME280;57052;55.602;38.096;2024-02-26T08:05:42;101515.59;;;1.67;52.62
69780;BME280;57052;55.602;38.096;2024-02-26T08:08:08;101525.41;;;1.66;52.36
69780;BME280;57052;55.602;38.096;2024-02-26T08:10:35;101510.44;;;1.65;52.54
69780;BME280;57052;55.602;38.096;2024-02-26T08:13:00;101520.84;;;1.75;52.40
69780;BME280;57052;55.602;38.096;2024-02-26T08:15:32;101521.13;;;1.80;52.72
69780;BME280;57052;55.602;38.096;2024-02-26T08:17:58;101517.72;;;1.86;53.09
69780;BME280;57052;55.602;38.096;2024-02-26T08:20:23;101519.50;;;1.93;52.13
69780;BME280;57052;55.602;38.096;2024-02-26T08:22:49;101531.94;;;2.01;52.10
69780;BME280;57052;55.602;38.096;2024-02-26T08:25:15;101504.31;;;1.94;52.05
69780;BME280;57052;55.602;38.096;2024-02-26T08:27:41;101529.00;;;2.11;51.88
69780;BME280;57052;55.602;38.096;2024-02-26T08:30:07;101526.25;;;2.19;52.00
69780;BME280;57052;55.602;38.096;2024-02-26T08:32:33;101508.31;;;2.13;52.39
69780;BME280;57052;55.602;38.096;2024-02-26T08:34:59;101516.59;;;2.32;52.20
69780;BME280;57052;55.602;38.096;2024-02-26T08:37:24;101469.88;;;2.14;52.22
69780;BME280;57052;55.602;38.096;2024-02-26T08:39:50;101502.09;;;2.41;51.24
69780;BME280;57052;55.602;38.096;2024-02-26T08:42:16;101517.13;;;2.57;51.27
69780;BME280;57052;55.602;38.096;2024-02-26T08:44:41;101517.66;;;2.67;51.82
69780;BME280;57052;55.602;38.096;2024-02-26T08:47:07;101517.75;;;2.74;52.04
69780;BME280;57052;55.602;38.096;2024-02-26T08:49:33;101522.25;;;2.73;51.61
69780;BME280;57052;55.602;38.096;2024-02-26T08:51:58;101518.31;;;2.69;51.72
69780;BME280;57052;55.602;38.096;2024-02-26T08:54:24;101527.06;;;2.63;51.76
69780;BME280;57052;55.602;38.096;2024-02-26T08:56:50;101515.56;;;2.63;51.63
69780;BME280;57052;55.602;38.096;2024-02-26T08:59:15;101518.03;;;2.64;51.49
69780;BME280;57052;55.602;38.096;2024-02-26T09:01:42;101514.78;;;2.69;51.30
69780;BME280;57052;55.602;38.096;2024-02-26T09:06:53;101515.44;;;2.85;51.58
69780;BME280;57052;55.602;38.096;2024-02-26T09:09:19;101518.38;;;2.90;50.64
69780;BME280;57052;55.602;38.096;2024-02-26T09:11:45;101520.66;;;2.93;50.67
69780;BME280;57052;55.602;38.096;2024-02-26T09:14:12;101518.84;;;2.79;50.58
69780;BME280;57052;55.602;38.096;2024-02-26T09:16:38;101517.53;;;2.90;51.47
69780;BME280;57052;55.602;38.096;2024-02-26T09:19:03;101512.63;;;2.93;50.71
69780;BME280;57052;55.602;38.096;2024-02-26T09:21:48;101507.38;;;3.00;51.10
69780;BME280;57052;55.602;38.096;2024-02-26T09:24:14;101501.81;;;3.01;51.23
69780;BME280;57052;55.602;38.096;2024-02-26T09:26:40;101510.44;;;3.18;50.66
69780;BME280;57052;55.602;38.096;2024-02-26T09:29:05;101518.91;;;3.21;51.27
69780;BME280;57052;55.602;38.096;2024-02-26T09:31:31;101507.38;;;3.21;50.39
69780;BME280;57052;55.602;38.096;2024-02-26T09:33:57;101511.50;;;3.23;50.89
69780;BME280;57052;55.602;38.096;2024-02-26T09:36:23;101510.97;;;3.28;50.11
69780;BME280;57052;55.602;38.096;2024-02-26T09:38:48;101505.09;;;3.18;50.57
69780;BME280;57052;55.602;38.096;2024-02-26T09:41:15;101498.06;;;3.17;50.43
69780;BME280;57052;55.602;38.096;2024-02-26T09:43:45;101505.63;;;3.28;50.53
69780;BME280;57052;55.602;38.096;2024-02-26T09:46:12;101483.53;;;3.26;50.42
69780;BME280;57052;55.602;38.096;2024-02-26T09:48:38;101490.69;;;3.40;50.25
69780;BME280;57052;55.602;38.096;2024-02-26T09:51:04;101473.63;;;3.20;50.48
69780;BME280;57052;55.602;38.096;2024-02-26T09:53:31;101493.03;;;3.29;50.78
69780;BME280;57052;55.602;38.096;2024-02-26T09:56:00;101498.91;;;3.17;50.39
69780;BME280;57052;55.602;38.096;2024-02-26T09:58:29;101492.53;;;3.18;50.48
69780;BME280;57052;55.602;38.096;2024-02-26T10:00:56;101493.44;;;3.26;50.72
69780;BME280;57052;55.602;38.096;2024-02-26T10:03:31;101491.66;;;3.33;49.77
69780;BME280;57052;55.602;38.096;2024-02-26T10:06:18;101484.22;;;3.28;49.25
69780;BME280;57052;55.602;38.096;2024-02-26T10:08:45;101478.44;;;3.31;50.38
69780;BME280;57052;55.602;38.096;2024-02-26T10:11:11;101479.22;;;3.25;50.40
69780;BME280;57052;55.602;38.096;2024-02-26T10:13:37;101473.09;;;3.31;50.15
69780;BME280;57052;55.602;38.096;2024-02-26T10:16:04;101482.66;;;3.40;50.06
69780;BME280;57052;55.602;38.096;2024-02-26T10:18:49;101480.81;;;3.41;49.87
69780;BME280;57052;55.602;38.096;2024-02-26T10:21:22;101466.44;;;3.48;50.06
69780;BME280;57052;55.602;38.096;2024-02-26T10:23:48;101476.16;;;3.49;50.21
69780;BME280;57052;55.602;38.096;2024-02-26T10:26:15;101467.91;;;3.51;50.53
69780;BME280;57052;55.602;38.096;2024-02-26T10:28:43;101465.94;;;3.59;49.81
69780;BME280;57052;55.602;38.096;2024-02-26T10:31:09;101463.31;;;3.66;49.83
69780;BME280;57052;55.602;38.096;2024-02-26T10:33:37;101455.72;;;3.69;49.94
69780;BME280;57052;55.602;38.096;2024-02-26T10:36:04;101461.28;;;3.68;50.31
69780;BME280;57052;55.602;38.096;2024-02-26T10:38:31;101457.56;;;3.69;49.60
69780;BME280;57052;55.602;38.096;2024-02-26T10:40:57;101449.53;;;3.69;50.20
69780;BME280;57052;55.602;38.096;2024-02-26T10:43:25;101460.72;;;3.79;50.03
69780;BME280;57052;55.602;38.096;2024-02-26T10:45:50;101451.25;;;3.76;49.59
69780;BME280;57052;55.602;38.096;2024-02-26T10:48:17;101431.59;;;3.63;50.24
69780;BME280;57052;55.602;38.096;2024-02-26T10:50:43;101456.25;;;3.86;49.52
69780;BME280;57052;55.602;38.096;2024-02-26T10:53:15;101454.16;;;3.81;49.60
69780;BME280;57052;55.602;38.096;2024-02-26T10:55:45;101451.63;;;3.73;49.28
69780;BME280;57052;55.602;38.096;2024-02-26T10:58:13;101449.78;;;3.74;49.55
69780;BME280;57052;55.602;38.096;2024-02-26T11:00:40;101434.69;;;3.66;50.02
69780;BME280;57052;55.602;38.096;2024-02-26T11:03:06;101431.38;;;3.64;49.96
69780;BME280;57052;55.602;38.096;2024-02-26T11:05:35;101431.41;;;3.71;49.87
69780;BME280;57052;55.602;38.096;2024-02-26T11:08:02;101451.31;;;3.83;49.42
69780;BME280;57052;55.602;38.096;2024-02-26T11:10:29;101430.88;;;3.82;49.83
69780;BME280;57052;55.602;38.096;2024-02-26T11:12:57;101447.22;;;3.94;49.73
69780;BME280;57052;55.602;38.096;2024-02-26T11:15:44;101437.56;;;3.93;48.58
69780;BME280;57052;55.602;38.096;2024-02-26T11:18:13;101424.56;;;3.96;49.10
69780;BME280;57052;55.602;38.096;2024-02-26T11:20:40;101420.13;;;4.03;49.88
69780;BME280;57052;55.602;38.096;2024-02-26T11:23:07;101422.59;;;4.05;49.80
69780;BME280;57052;55.602;38.096;2024-02-26T11:25:35;101425.03;;;4.06;49.35
69780;BME280;57052;55.602;38.096;2024-02-26T11:28:04;101423.44;;;4.12;49.15
69780;BME280;57052;55.602;38.096;2024-02-26T11:30:33;101440.13;;;4.14;48.67
69780;BME280;57052;55.602;38.096;2024-02-26T11:33:00;101431.53;;;4.18;49.49
69780;BME280;57052;55.602;38.096;2024-02-26T11:35:28;101417.69;;;4.15;48.62
69780;BME280;57052;55.602;38.096;2024-02-26T11:37:55;101421.81;;;4.17;49.27
69780;BME280;57052;55.602;38.096;2024-02-26T11:40:25;101422.69;;;4.24;48.78
69780;BME280;57052;55.602;38.096;2024-02-26T11:42:51;101422.03;;;4.16;48.44
69780;BME280;57052;55.602;38.096;2024-02-26T11:48:13;101394.09;;;3.97;49.02
69780;BME280;57052;55.602;38.096;2024-02-26T11:50:40;101411.88;;;4.05;48.93
69780;BME280;57052;55.602;38.096;2024-02-26T11:53:26;101414.09;;;4.01;47.39
69780;BME280;57052;55.602;38.096;2024-02-26T11:56:25;101420.66;;;3.92;46.94
69780;BME280;57052;55.602;38.096;2024-02-26T11:59:10;101418.81;;;3.93;47.35
69780;BME280;57052;55.602;38.096;2024-02-26T12:01:43;101428.91;;;3.91;48.00
69780;BME280;57052;55.602;38.096;2024-02-26T12:06:44;101409.97;;;3.99;48.22
69780;BME280;57052;55.602;38.096;2024-02-26T12:09:11;101419.06;;;4.04;47.91
69780;BME280;57052;55.602;38.096;2024-02-26T12:11:39;101392.44;;;3.96;47.95
69780;BME280;57052;55.602;38.096;2024-02-26T12:14:07;101407.53;;;4.04;47.02
69780;BME280;57052;55.602;38.096;2024-02-26T12:16:40;101406.91;;;4.02;45.93
69780;BME280;57052;55.602;38.096;2024-02-26T12:19:08;101404.22;;;4.02;47.58
69780;BME280;57052;55.602;38.096;2024-02-26T12:21:38;101389.53;;;3.91;46.73
69780;BME280;57052;55.602;38.096;2024-02-26T12:24:10;101398.38;;;3.85;45.49
69780;BME280;57052;55.602;38.096;2024-02-26T12:26:36;101398.13;;;3.80;46.97
69780;BME280;57052;55.602;38.096;2024-02-26T12:29:02;101395.00;;;3.76;46.57
69780;BME280;57052;55.602;38.096;2024-02-26T12:31:28;101399.09;;;3.72;46.79
69780;BME280;57052;55.602;38.096;2024-02-26T12:33:54;101401.41;;;3.75;46.68
69780;BME280;57052;55.602;38.096;2024-02-26T12:36:21;101392.94;;;3.78;47.30
69780;BME280;57052;55.602;38.096;2024-02-26T12:38:50;101378.06;;;3.69;46.84
69780;BME280;57052;55.602;38.096;2024-02-26T12:41:16;101404.72;;;3.84;46.41
69780;BME280;57052;55.602;38.096;2024-02-26T12:43:42;101394.41;;;3.81;46.72
69780;BME280;57052;55.602;38.096;2024-02-26T12:46:08;101396.66;;;3.77;46.83
69780;BME280;57052;55.602;38.096;2024-02-26T12:48:34;101391.47;;;3.69;46.20
69780;BME280;57052;55.602;38.096;2024-02-26T12:50:59;101390.38;;;3.64;46.75
69780;BME280;57052;55.602;38.096;2024-02-26T12:53:26;101390.78;;;3.61;46.53
69780;BME280;57052;55.602;38.096;2024-02-26T12:55:55;101391.75;;;3.53;45.49
69780;BME280;57052;55.602;38.096;2024-02-26T12:58:21;101388.19;;;3.46;46.33